createdAt,value
2019-02-18T00:02:14.383Z,18.90
2019-02-18T00:04:43.064Z,20.05
2019-02-18T00:07:14.440Z,18.90
2019-02-18T00:09:41.945Z,19.12
2019-02-18T00:12:10.399Z,19.70
2019-02-18T00:14:38.968Z,17.75
2019-02-18T00:17:07.356Z,18.42
2019-02-18T00:19:35.849Z,18.77
2019-02-18T00:22:04.619Z,18.60
2019-02-18T00:24:33.112Z,17.55
2019-02-18T00:27:03.332Z,17.92
2019-02-18T00:29:32.026Z,15.85
2019-02-18T00:32:01.501Z,16.77
2019-02-18T00:34:30.787Z,17.30
2019-02-18T00:36:59.389Z,16.57
2019-02-18T00:39:27.771Z,16.67
2019-02-18T00:41:56.278Z,17.00
2019-02-18T00:44:24.771Z,17.42
2019-02-18T00:46:53.263Z,15.75
2019-02-18T00:49:21.628Z,17.32
2019-02-18T00:51:51.219Z,14.70
2019-02-18T00:54:19.698Z,16.82
2019-02-18T00:56:48.288Z,17.12
2019-02-18T00:59:26.179Z,15.98
2019-02-18T01:01:54.736Z,15.50
2019-02-18T01:04:23.149Z,17.35
2019-02-18T01:06:51.636Z,16.82
2019-02-18T01:09:20.116Z,17.10
2019-02-18T01:11:48.563Z,16.32
2019-02-18T01:14:18.238Z,16.15
2019-02-18T01:16:48.441Z,15.95
2019-02-18T01:19:16.910Z,17.05
2019-02-18T01:21:45.380Z,15.90
2019-02-18T01:24:13.868Z,15.38
2019-02-18T01:26:42.247Z,13.48
2019-02-18T01:29:10.668Z,14.07
2019-02-18T01:31:39.057Z,15.70
2019-02-18T01:34:07.531Z,14.83
2019-02-18T01:36:36.002Z,14.80
2019-02-18T01:39:05.511Z,13.95
2019-02-18T01:41:34.892Z,15.32
2019-02-18T01:44:03.672Z,14.65
2019-02-18T01:46:33.859Z,15.78
2019-02-18T01:49:02.261Z,13.83
2019-02-18T01:51:30.843Z,13.28
2019-02-18T01:53:59.252Z,16.23
2019-02-18T01:56:27.628Z,14.07
2019-02-18T01:58:57.826Z,12.85
2019-02-18T02:01:28.067Z,14.10
2019-02-18T02:03:56.526Z,14.05
2019-02-18T02:06:25.221Z,13.15
2019-02-18T02:08:53.702Z,13.85
2019-02-18T02:11:22.187Z,13.38
2019-02-18T02:13:50.682Z,11.93
2019-02-18T02:16:19.061Z,13.25
2019-02-18T02:18:47.457Z,12.80
2019-02-18T02:21:16.734Z,12.20
2019-02-18T02:23:45.839Z,12.85
2019-02-18T02:26:14.328Z,13.72
2019-02-18T02:28:42.706Z,12.33
2019-02-18T02:31:11.261Z,11.00
2019-02-18T02:33:39.743Z,9.80
2019-02-18T02:36:08.120Z,11.12
2019-02-18T02:38:36.604Z,10.35
2019-02-18T02:41:05.220Z,11.03
2019-02-18T02:43:35.319Z,10.75
2019-02-18T02:46:03.695Z,10.58
2019-02-18T02:48:32.903Z,11.70
2019-02-18T02:51:01.531Z,10.80
2019-02-18T02:53:30.032Z,11.30
2019-02-18T02:55:58.515Z,10.28
2019-02-18T02:58:26.943Z,9.43
2019-02-18T03:00:55.527Z,10.70
2019-02-18T03:03:24.008Z,9.20
2019-02-18T03:05:52.595Z,9.55
2019-02-18T03:08:22.072Z,10.28
2019-02-18T03:10:50.625Z,10.48
2019-02-18T03:13:19.241Z,9.50
2019-02-18T03:15:47.728Z,10.90
2019-02-18T03:18:16.302Z,12.40
2019-02-18T03:20:44.737Z,10.23
2019-02-18T03:23:13.714Z,11.05
2019-02-18T03:25:43.990Z,9.85
2019-02-18T03:29:27.451Z,10.82
2019-02-18T03:31:57.761Z,11.38
2019-02-18T03:34:39.103Z,10.45
2019-02-18T03:37:08.203Z,10.15
2019-02-18T03:39:36.577Z,11.25
2019-02-18T03:42:05.309Z,11.08
2019-02-18T03:44:34.194Z,10.43
2019-02-18T03:47:04.370Z,10.72
2019-02-18T03:49:32.759Z,12.03
2019-02-18T03:52:01.460Z,11.20
2019-02-18T03:54:29.962Z,9.40
2019-02-18T03:56:58.342Z,10.88
2019-02-18T03:59:28.567Z,9.13
2019-02-18T04:01:58.933Z,10.45
2019-02-18T04:04:27.307Z,9.23
2019-02-18T04:06:56.310Z,10.70
2019-02-18T04:09:24.685Z,10.78
2019-02-18T04:11:54.929Z,9.58
2019-02-18T04:14:23.413Z,10.10
2019-02-18T04:16:51.814Z,11.10
2019-02-18T04:19:20.226Z,9.18
2019-02-18T04:21:48.751Z,9.43
2019-02-18T04:24:18.931Z,10.00
2019-02-18T04:26:47.416Z,8.70
2019-02-18T04:29:15.797Z,10.00
2019-02-18T04:31:44.349Z,11.28
2019-02-18T04:34:12.727Z,9.28
2019-02-18T04:36:41.311Z,9.80
2019-02-18T04:39:11.112Z,8.45
2019-02-18T04:41:39.572Z,9.03
2019-02-18T04:44:08.081Z,8.03
2019-02-18T04:46:36.448Z,10.43
2019-02-18T04:49:04.816Z,8.70
2019-02-18T04:51:33.282Z,9.18
2019-02-18T04:54:03.479Z,7.87
2019-02-18T04:56:32.100Z,8.78
2019-02-18T04:59:00.470Z,7.62
2019-02-18T05:01:29.057Z,7.97
2019-02-18T05:03:57.461Z,9.30
2019-02-18T05:06:25.853Z,9.03
2019-02-18T05:09:04.815Z,8.85
2019-02-18T05:11:24.888Z,8.10
2019-02-18T05:13:55.137Z,7.97
2019-02-18T05:16:23.610Z,11.05
2019-02-18T05:18:53.794Z,8.10
2019-02-18T05:21:22.229Z,7.00
2019-02-18T05:23:50.721Z,8.08
2019-02-18T05:26:19.108Z,8.00
2019-02-18T05:28:49.284Z,6.83
2019-02-18T05:31:17.841Z,7.60
2019-02-18T05:33:48.027Z,7.40
2019-02-18T05:36:16.394Z,7.15
2019-02-18T05:38:45.289Z,8.08
2019-02-18T05:41:14.220Z,7.90
2019-02-18T05:43:44.450Z,6.62
2019-02-18T05:46:12.881Z,7.80
2019-02-18T05:48:41.415Z,6.50
2019-02-18T05:51:09.932Z,7.45
2019-02-18T05:53:38.324Z,8.75
2019-02-18T05:56:06.811Z,7.92
2019-02-18T05:58:35.280Z,8.50
2019-02-18T06:01:03.770Z,9.70
2019-02-18T06:03:32.165Z,10.18
2019-02-18T06:06:00.538Z,10.03
2019-02-18T06:08:28.951Z,9.80
2019-02-18T06:10:57.340Z,7.90
2019-02-18T06:13:26.026Z,9.53
2019-02-18T06:15:56.220Z,9.05
2019-02-18T06:18:24.601Z,9.80
2019-02-18T06:20:53.184Z,9.20
2019-02-18T06:23:21.571Z,8.20
2019-02-18T06:25:49.945Z,8.35
2019-02-18T06:28:18.329Z,8.83
2019-02-18T06:30:48.072Z,9.10
2019-02-18T06:33:17.175Z,9.78
2019-02-18T06:35:47.264Z,9.10
2019-02-18T06:38:15.658Z,12.18
2019-02-18T06:40:44.262Z,9.90
2019-02-18T06:43:12.770Z,10.08
2019-02-18T06:46:00.447Z,9.20
2019-02-18T06:48:31.583Z,13.83
2019-02-18T06:51:00.134Z,10.00
2019-02-18T06:53:30.342Z,9.85
2019-02-18T06:55:58.826Z,10.80
2019-02-18T06:58:55.674Z,9.93
2019-02-18T07:01:48.054Z,9.65
2019-02-18T07:04:36.036Z,9.18
2019-02-18T07:07:30.221Z,10.53
2019-02-18T07:10:08.299Z,8.53
2019-02-18T07:12:43.115Z,9.50
2019-02-18T07:15:11.655Z,10.80
2019-02-18T07:17:40.022Z,13.65
2019-02-18T07:20:08.527Z,14.00
2019-02-18T07:22:37.014Z,15.25
2019-02-18T07:25:07.394Z,15.28
2019-02-18T07:27:35.779Z,16.10
2019-02-18T07:30:07.343Z,15.98
2019-02-18T07:32:37.538Z,15.23
2019-02-18T07:35:06.124Z,14.58
2019-02-18T07:37:34.612Z,17.98
2019-02-18T07:40:03.957Z,17.23
2019-02-18T07:42:32.340Z,15.60
2019-02-18T07:45:00.866Z,16.37
2019-02-18T07:47:31.037Z,18.90
2019-02-18T07:49:59.517Z,18.70
2019-02-18T07:52:27.910Z,17.67
2019-02-18T07:54:56.291Z,19.40
2019-02-18T07:57:24.706Z,18.20
2019-02-18T07:59:53.098Z,18.55
2019-02-18T08:02:21.587Z,19.37
2019-02-18T08:04:50.077Z,16.95
2019-02-18T08:07:18.567Z,17.45
2019-02-18T08:09:48.784Z,17.25
2019-02-18T08:12:17.631Z,18.27
2019-02-18T08:14:47.817Z,19.12
2019-02-18T08:17:16.416Z,17.05
2019-02-18T08:19:44.896Z,18.07
2019-02-18T08:22:13.570Z,19.00
2019-02-18T08:24:42.278Z,18.07
2019-02-18T08:27:10.673Z,19.77
2019-02-18T08:29:40.194Z,18.75
2019-02-18T08:32:10.954Z,18.32
2019-02-18T08:34:39.840Z,19.27
2019-02-18T08:37:08.646Z,20.65
2019-02-18T08:39:37.282Z,19.48
2019-02-18T08:42:07.514Z,18.42
2019-02-18T08:44:36.119Z,21.27
2019-02-18T08:47:05.226Z,20.27
2019-02-18T08:49:33.694Z,19.07
2019-02-18T08:52:02.276Z,18.87
2019-02-18T08:54:31.075Z,17.93
2019-02-18T08:57:01.596Z,18.83
2019-02-18T08:59:30.256Z,17.03
2019-02-18T09:01:58.833Z,17.50
2019-02-18T09:04:28.132Z,17.23
2019-02-18T09:06:56.826Z,16.62
2019-02-18T09:09:25.418Z,17.90
2019-02-18T09:11:53.953Z,17.13
2019-02-18T09:14:22.352Z,14.90
2019-02-18T09:16:51.053Z,15.10
2019-02-18T09:19:21.275Z,13.40
2019-02-18T09:21:54.607Z,13.87
2019-02-18T09:24:28.070Z,14.03
2019-02-18T09:26:56.445Z,15.53
2019-02-18T09:29:24.891Z,12.70
2019-02-18T09:31:53.457Z,12.73
2019-02-18T09:34:21.852Z,12.73
2019-02-18T09:36:50.495Z,14.43
2019-02-18T09:39:30.613Z,12.90
2019-02-18T09:41:52.716Z,14.37
2019-02-18T09:44:21.305Z,13.50
2019-02-18T09:46:49.899Z,14.23
2019-02-18T09:49:18.997Z,15.77
2019-02-18T09:51:49.266Z,13.90
2019-02-18T09:54:17.755Z,13.60
2019-02-18T09:56:46.138Z,13.57
2019-02-18T09:59:14.904Z,13.23
2019-02-18T10:01:43.474Z,14.57
2019-02-18T10:04:11.857Z,13.80
2019-02-18T10:06:40.343Z,12.10
2019-02-18T10:09:08.721Z,13.43
2019-02-18T10:11:37.340Z,13.60
2019-02-18T10:14:05.847Z,13.33
2019-02-18T10:16:34.223Z,13.40
2019-02-18T10:19:02.704Z,13.50
2019-02-18T10:21:31.153Z,12.70
2019-02-18T10:23:59.959Z,14.00
2019-02-18T10:26:28.846Z,12.60
2019-02-18T10:28:57.250Z,14.20
2019-02-18T10:31:25.765Z,12.73
2019-02-18T10:33:54.240Z,14.27
2019-02-18T10:36:22.624Z,13.90
2019-02-18T10:38:51.081Z,16.37
2019-02-18T10:41:19.510Z,14.37
2019-02-18T10:43:48.593Z,13.57
2019-02-18T10:46:17.130Z,12.67
2019-02-18T10:48:47.684Z,13.80
2019-02-18T10:51:16.873Z,12.67
2019-02-18T10:53:45.532Z,13.10
2019-02-18T10:56:14.426Z,13.20
2019-02-18T10:58:42.852Z,12.97
2019-02-18T11:01:11.808Z,15.23
2019-02-18T11:03:40.377Z,15.17
2019-02-18T11:06:09.414Z,15.50
2019-02-18T11:08:37.862Z,15.47
2019-02-18T11:11:16.706Z,15.27
2019-02-18T11:13:38.617Z,15.20
2019-02-18T11:16:08.843Z,14.40
2019-02-18T11:18:37.506Z,15.77
2019-02-18T11:21:06.031Z,15.27
2019-02-18T11:23:34.749Z,14.30
2019-02-18T11:26:05.062Z,13.60
2019-02-18T11:28:33.677Z,13.47
2019-02-18T11:31:03.112Z,12.53
2019-02-18T11:33:32.085Z,11.93
2019-02-18T11:36:01.853Z,11.10
2019-02-18T11:38:30.486Z,11.47
2019-02-18T11:40:59.046Z,10.27
2019-02-18T11:43:27.448Z,11.47
2019-02-18T11:45:57.121Z,11.37
2019-02-18T11:48:25.921Z,10.40
2019-02-18T11:50:55.588Z,10.73
2019-02-18T11:53:24.541Z,10.90
2019-02-18T11:55:53.365Z,11.03
2019-02-18T11:58:21.890Z,10.13
2019-02-18T12:00:50.396Z,9.83
2019-02-18T12:03:18.888Z,10.00
2019-02-18T12:05:47.862Z,10.13
2019-02-18T12:08:16.355Z,9.10
2019-02-18T12:10:46.818Z,8.77
2019-02-18T12:13:15.300Z,9.47
2019-02-18T12:15:45.592Z,8.93
2019-02-18T12:18:14.255Z,8.40
2019-02-18T12:20:43.101Z,8.70
2019-02-18T12:23:11.627Z,8.20
2019-02-18T12:25:40.129Z,8.00
2019-02-18T12:28:08.518Z,7.47
2019-02-18T12:30:39.022Z,8.10
2019-02-18T12:33:07.615Z,7.67
2019-02-18T12:35:37.187Z,8.87
2019-02-18T12:38:07.164Z,8.27
2019-02-18T12:40:35.585Z,7.27
2019-02-18T12:43:04.167Z,7.20
2019-02-18T12:45:32.770Z,8.00
2019-02-18T12:48:01.257Z,6.43
2019-02-18T12:50:29.888Z,7.77
2019-02-18T12:52:58.980Z,7.47
2019-02-18T12:55:28.155Z,6.33
2019-02-18T12:57:58.364Z,5.97
2019-02-18T13:00:31.861Z,7.93
2019-02-18T13:03:01.223Z,6.67
2019-02-18T13:05:29.686Z,6.67
2019-02-18T13:07:58.768Z,7.57
2019-02-18T13:10:34.714Z,7.23
2019-02-18T13:12:59.868Z,7.00
2019-02-18T13:15:28.513Z,6.10
2019-02-18T13:17:57.346Z,8.37
2019-02-18T13:20:25.997Z,7.33
2019-02-18T13:22:56.519Z,6.70
2019-02-18T13:25:26.756Z,7.03
2019-02-18T13:27:55.927Z,7.17
2019-02-18T13:30:25.268Z,6.73
2019-02-18T13:32:54.043Z,8.13
2019-02-18T13:35:22.987Z,7.17
2019-02-18T13:37:51.606Z,7.67
2019-02-18T13:40:20.168Z,7.13
2019-02-18T13:42:48.877Z,7.90
2019-02-18T13:45:19.144Z,5.93
2019-02-18T13:47:47.643Z,7.20
2019-02-18T13:50:16.677Z,7.30
2019-02-18T13:52:45.410Z,7.60
2019-02-18T13:55:14.352Z,7.37
2019-02-18T13:57:43.460Z,6.23
2019-02-18T14:00:19.309Z,6.30
2019-02-18T14:02:50.253Z,7.00
2019-02-18T14:05:19.581Z,7.43
2019-02-18T14:07:48.263Z,6.80
2019-02-18T14:10:18.009Z,7.40
2019-02-18T14:12:46.903Z,7.80
2019-02-18T14:15:16.417Z,7.17
2019-02-18T14:17:46.759Z,7.03
2019-02-18T14:20:16.290Z,6.77
2019-02-18T14:22:45.235Z,7.40
2019-02-18T14:25:15.688Z,6.77
2019-02-18T14:27:45.395Z,8.77
2019-02-18T14:30:15.632Z,6.63
2019-02-18T14:32:44.188Z,7.63
2019-02-18T14:35:12.830Z,8.20
2019-02-18T14:37:41.273Z,6.70
2019-02-18T14:40:13.327Z,6.77
2019-02-18T14:42:42.077Z,7.80
2019-02-18T14:45:11.813Z,6.83
2019-02-18T14:47:41.623Z,6.67
2019-02-18T14:50:11.155Z,6.83
2019-02-18T14:52:40.143Z,8.37
2019-02-18T14:55:08.923Z,7.20
2019-02-18T14:57:37.714Z,7.03
2019-02-18T15:00:30.253Z,7.13
2019-02-18T15:02:59.059Z,7.20
2019-02-18T15:05:27.858Z,6.87
2019-02-18T15:07:56.527Z,6.53
2019-02-18T15:10:25.675Z,7.07
2019-02-18T15:12:54.624Z,8.23
2019-02-18T15:15:24.469Z,6.93
2019-02-18T15:17:52.924Z,6.57
2019-02-18T15:20:24.388Z,7.30
2019-02-18T15:22:53.374Z,6.80
2019-02-18T15:25:22.288Z,7.80
2019-02-18T15:27:51.715Z,7.07
2019-02-18T15:30:21.224Z,7.70
2019-02-18T15:32:50.140Z,6.50
2019-02-18T15:35:19.319Z,7.90
2019-02-18T15:37:48.080Z,6.77
2019-02-18T15:40:18.388Z,6.20
2019-02-18T15:42:47.227Z,7.87
2019-02-18T15:45:16.276Z,6.83
2019-02-18T15:47:45.064Z,7.90
2019-02-18T15:50:14.333Z,6.63
2019-02-18T15:52:43.272Z,7.73
2019-02-18T15:55:12.091Z,7.33
2019-02-18T15:57:40.571Z,6.80
2019-02-18T16:00:28.703Z,7.60
2019-02-18T16:02:57.209Z,7.83
2019-02-18T16:05:25.711Z,7.27
2019-02-18T16:07:54.664Z,8.70
2019-02-18T16:10:23.582Z,7.47
2019-02-18T16:12:52.488Z,7.17
2019-02-18T16:15:20.992Z,7.30
2019-02-18T16:17:49.483Z,6.90
2019-02-18T16:20:18.064Z,6.33
2019-02-18T16:22:46.554Z,7.20
2019-02-18T16:25:17.873Z,7.40
2019-02-18T16:27:46.968Z,7.93
2019-02-18T16:30:15.597Z,7.60
2019-02-18T16:32:44.484Z,7.47
2019-02-18T16:35:13.469Z,6.60
2019-02-18T16:37:42.413Z,7.23
2019-02-18T16:40:13.675Z,7.73
2019-02-18T16:42:43.885Z,8.03
2019-02-18T16:45:13.039Z,7.80
2019-02-18T16:47:43.220Z,8.80
2019-02-18T16:50:12.659Z,9.63
2019-02-18T16:52:44.148Z,13.10
2019-02-18T16:55:12.888Z,13.03
2019-02-18T16:57:41.300Z,15.80
2019-02-18T17:00:27.948Z,17.70
2019-02-18T17:02:57.061Z,18.23
2019-02-18T17:05:25.453Z,20.67
2019-02-18T17:07:53.960Z,23.90
2019-02-18T17:10:23.656Z,22.17
2019-02-18T17:12:53.357Z,22.17
2019-02-18T17:15:21.736Z,22.43
2019-02-18T17:17:50.149Z,21.20
2019-02-18T17:20:18.736Z,22.97
2019-02-18T17:22:47.259Z,24.53
2019-02-18T17:25:16.735Z,24.00
2019-02-18T17:27:45.561Z,21.70
2019-02-18T17:30:14.150Z,17.60
2019-02-18T17:32:42.737Z,18.00
2019-02-18T17:35:13.327Z,14.83
2019-02-18T17:37:41.941Z,16.60
2019-02-18T17:40:12.681Z,14.20
2019-02-18T17:42:41.595Z,16.50
2019-02-18T17:45:12.127Z,15.13
2019-02-18T17:47:40.547Z,14.73
2019-02-18T17:50:12.239Z,13.60
2019-02-18T17:52:40.754Z,13.77
2019-02-18T17:55:11.942Z,13.53
2019-02-18T17:57:42.674Z,14.53
2019-02-18T18:00:17.531Z,13.00
2019-02-18T18:02:46.430Z,13.80
2019-02-18T18:05:16.177Z,14.80
2019-02-18T18:07:46.208Z,15.80
2019-02-18T18:10:14.728Z,16.17
2019-02-18T18:12:43.515Z,15.77
2019-02-18T18:15:12.243Z,14.90
2019-02-18T18:17:41.501Z,14.03
2019-02-18T18:20:10.727Z,13.70
2019-02-18T18:22:39.476Z,12.93
2019-02-18T18:25:09.167Z,14.63
2019-02-18T18:27:37.809Z,15.03
2019-02-18T18:30:08.922Z,15.20
2019-02-18T18:32:41.178Z,15.63
2019-02-18T18:35:10.309Z,16.23
2019-02-18T18:37:38.996Z,15.77
2019-02-18T18:40:10.405Z,16.67
2019-02-18T18:42:40.771Z,17.70
2019-02-18T18:45:11.429Z,16.97
2019-02-18T18:47:41.160Z,16.00
2019-02-18T18:50:13.663Z,17.53
2019-02-18T18:52:42.481Z,13.80
2019-02-18T18:55:11.069Z,13.83
2019-02-18T18:57:39.491Z,15.40
2019-02-18T19:00:22.335Z,14.77
2019-02-18T19:02:56.114Z,15.60
2019-02-18T19:05:24.859Z,15.37
2019-02-18T19:07:53.491Z,16.00
2019-02-18T19:10:22.310Z,15.00
2019-02-18T19:12:50.804Z,17.53
2019-02-18T19:15:20.085Z,16.03
2019-02-18T19:17:48.808Z,16.47
2019-02-18T19:20:17.493Z,18.10
2019-02-18T19:22:46.136Z,16.80
2019-02-18T19:25:15.030Z,17.27
2019-02-18T19:27:43.434Z,17.93
2019-02-18T19:30:15.552Z,17.90
2019-02-18T19:32:43.949Z,18.33
2019-02-18T19:35:12.795Z,17.87
2019-02-18T19:37:41.295Z,17.33
2019-02-18T19:40:11.825Z,21.33
2019-02-18T19:42:40.998Z,17.70
2019-02-18T19:45:15.313Z,18.70
2019-02-18T19:47:44.545Z,15.80
2019-02-18T19:50:13.366Z,15.50
2019-02-18T19:52:43.962Z,15.37
2019-02-18T19:55:14.427Z,15.37
2019-02-18T19:57:42.949Z,13.73
2019-02-18T20:00:15.560Z,13.80
2019-02-18T20:02:44.334Z,16.00
2019-02-18T20:05:13.186Z,14.97
2019-02-18T20:07:41.690Z,13.33
2019-02-18T20:10:12.755Z,14.00
2019-02-18T20:12:41.254Z,12.87
2019-02-18T20:15:10.745Z,13.00
2019-02-18T20:17:39.534Z,11.67
2019-02-18T20:20:09.568Z,15.23
2019-02-18T20:22:38.378Z,13.70
2019-02-18T20:25:08.609Z,13.77
2019-02-18T20:27:37.171Z,14.20
2019-02-18T20:30:06.802Z,11.63
2019-02-18T20:32:36.572Z,12.53
2019-02-18T20:35:05.629Z,13.97
2019-02-18T20:37:34.088Z,13.50
2019-02-18T20:40:03.137Z,14.17
2019-02-18T20:42:32.025Z,13.78
2019-02-18T20:45:02.759Z,14.10
2019-02-18T20:47:31.549Z,15.15
2019-02-18T20:50:01.794Z,16.95
2019-02-18T20:52:30.695Z,18.97
2019-02-18T20:55:00.892Z,21.65
2019-02-18T20:57:29.317Z,24.45
2019-02-18T20:59:57.740Z,24.47
2019-02-18T21:02:26.389Z,23.13
2019-02-18T21:04:55.182Z,25.17
2019-02-18T21:07:23.606Z,24.02
2019-02-18T21:09:52.187Z,25.00
2019-02-18T21:12:21.343Z,22.77
2019-02-18T21:14:50.363Z,24.43
2019-02-18T21:17:20.590Z,22.22
2019-02-18T21:19:48.971Z,24.77
2019-02-18T21:22:17.444Z,24.50
2019-02-18T21:24:45.847Z,23.57
2019-02-18T21:27:14.287Z,27.10
2019-02-18T21:29:43.313Z,27.10
2019-02-18T21:32:12.520Z,31.35
2019-02-18T21:34:41.022Z,28.50
2019-02-18T21:37:10.041Z,28.65
2019-02-18T21:39:38.549Z,24.95
2019-02-18T21:42:07.051Z,26.68
2019-02-18T21:44:37.318Z,28.25
2019-02-18T21:47:05.864Z,28.17
2019-02-18T21:49:34.855Z,31.12
2019-02-18T21:52:03.351Z,28.55
2019-02-18T21:54:33.560Z,29.75
2019-02-18T21:57:01.951Z,28.00
2019-02-18T21:59:31.456Z,30.08
2019-02-18T22:02:01.124Z,30.97
2019-02-18T22:04:29.646Z,26.90
2019-02-18T22:06:58.034Z,26.85
2019-02-18T22:09:26.536Z,27.37
2019-02-18T22:11:55.130Z,29.20
2019-02-18T22:14:23.512Z,28.47
2019-02-18T22:16:52.063Z,29.23
2019-02-18T22:19:20.451Z,27.27
2019-02-18T22:21:49.002Z,28.03
2019-02-18T22:24:17.389Z,29.98
2019-02-18T22:26:45.870Z,28.83
2019-02-18T22:29:14.356Z,27.42
2019-02-18T22:31:43.012Z,29.00
2019-02-18T22:34:12.219Z,29.30
2019-02-18T22:36:40.794Z,31.33
2019-02-18T22:39:09.203Z,33.00
2019-02-18T22:41:38.057Z,33.05
2019-02-18T22:44:06.542Z,34.35
2019-02-18T22:46:34.949Z,33.70
2019-02-18T22:49:03.832Z,33.38
2019-02-18T22:51:32.298Z,34.03
2019-02-18T22:54:01.008Z,33.85
2019-02-18T22:56:29.992Z,30.45
2019-02-18T22:58:58.395Z,33.90
2019-02-18T23:01:27.114Z,31.00
2019-02-18T23:03:55.602Z,32.38
2019-02-18T23:06:24.387Z,34.50
2019-02-18T23:08:52.869Z,34.30
2019-02-18T23:11:21.400Z,32.90
2019-02-18T23:13:49.788Z,33.10
2019-02-18T23:16:18.175Z,32.63
2019-02-18T23:18:46.571Z,33.42
2019-02-18T23:21:14.989Z,32.60
2019-02-18T23:23:45.003Z,30.97
2019-02-18T23:26:13.499Z,32.53
2019-02-18T23:28:43.795Z,33.08
2019-02-18T23:31:12.270Z,29.67
2019-02-18T23:33:40.768Z,30.55
2019-02-18T23:36:09.191Z,29.20
2019-02-18T23:38:37.577Z,31.50
2019-02-18T23:41:07.237Z,27.27
2019-02-18T23:43:35.631Z,29.90
2019-02-18T23:46:04.020Z,27.93
2019-02-18T23:48:32.532Z,31.42
2019-02-18T23:51:02.046Z,30.25
2019-02-18T23:53:30.435Z,29.75
2019-02-18T23:55:58.826Z,30.70
2019-02-18T23:58:27.360Z,29.65
